Terminal Aerodrome Forecast
Issued by NWS Twin Cities, MN

Home | Current Version | Previous Version | Text Only | Print | Product List | Glossary Off
Versions: 1 2 3 4 5 6 7 8 9 10 11 12

821
FTUS43 KMPX 291735
TAFSTC
TAF
KSTC 291735Z 2918/3018 04009KT P6SM SCT050
     FM301400 06011G18KT P6SM SCT250=

USA.gov is the U.S. government's official web portal to all federal, state and local government web resources and services.